sensor_id;sensor_type;location;lat;lon;timestamp;temperature;humidity
11826;DHT22;5970;48.094;11.496;2022-10-16T00:00:29;12.50;99.90
11826;DHT22;5970;48.094;11.496;2022-10-16T00:02:55;14.10;99.90
11826;DHT22;5970;48.094;11.496;2022-10-16T00:05:22;14.30;99.90
11826;DHT22;5970;48.094;11.496;2022-10-16T00:07:49;12.80;99.90
11826;DHT22;5970;48.094;11.496;2022-10-16T00:10:15;13.80;99.90
11826;DHT22;5970;48.094;11.496;2022-10-16T00:12:42;12.80;99.90
11826;DHT22;5970;48.094;11.496;2022-10-16T00:15:09;12.80;99.90
11826;DHT22;5970;48.094;11.496;2022-10-16T00:17:35;12.80;99.90
11826;DHT22;5970;48.094;11.496;2022-10-16T00:20:02;12.30;99.90
11826;DHT22;5970;48.094;11.496;2022-10-16T00:22:29;12.80;99.90
11826;DHT22;5970;48.094;11.496;2022-10-16T00:24:55;12.70;99.90
11826;DHT22;5970;48.094;11.496;2022-10-16T00:27:22;12.60;99.90
11826;DHT22;5970;48.094;11.496;2022-10-16T00:29:49;12.80;99.90
11826;DHT22;5970;48.094;11.496;2022-10-16T00:32:17;13.50;99.90
11826;DHT22;5970;48.094;11.496;2022-10-16T00:34:44;12.70;99.90
11826;DHT22;5970;48.094;11.496;2022-10-16T00:37:12;12.70;99.90
11826;DHT22;5970;48.094;11.496;2022-10-16T00:39:39;12.50;99.90
11826;DHT22;5970;48.094;11.496;2022-10-16T00:42:05;12.20;99.90
11826;DHT22;5970;48.094;11.496;2022-10-16T00:47:09;12.70;99.90
11826;DHT22;5970;48.094;11.496;2022-10-16T00:49:36;13.50;99.90
11826;DHT22;5970;48.094;11.496;2022-10-16T00:52:02;13.20;99.90
11826;DHT22;5970;48.094;11.496;2022-10-16T00:54:30;12.70;99.90
11826;DHT22;5970;48.094;11.496;2022-10-16T00:56:58;12.00;99.90
11826;DHT22;5970;48.094;11.496;2022-10-16T00:59:38;13.30;99.90
11826;DHT22;5970;48.094;11.496;2022-10-16T01:02:07;12.80;99.90
11826;DHT22;5970;48.094;11.496;2022-10-16T01:04:38;13.70;99.90
11826;DHT22;5970;48.094;11.496;2022-10-16T01:14:53;12.90;99.90
11826;DHT22;5970;48.094;11.496;2022-10-16T01:17:23;13.00;99.90
11826;DHT22;5970;48.094;11.496;2022-10-16T01:19:58;13.00;99.90
11826;DHT22;5970;48.094;11.496;2022-10-16T01:22:31;13.00;99.90
11826;DHT22;5970;48.094;11.496;2022-10-16T01:25:00;13.80;99.90
11826;DHT22;5970;48.094;11.496;2022-10-16T01:27:31;14.80;99.90
11826;DHT22;5970;48.094;11.496;2022-10-16T01:30:17;12.80;99.90
11826;DHT22;5970;48.094;11.496;2022-10-16T01:32:57;13.00;99.90
11826;DHT22;5970;48.094;11.496;2022-10-16T01:35:32;13.00;99.90
11826;DHT22;5970;48.094;11.496;2022-10-16T01:38:08;12.90;99.90
11826;DHT22;5970;48.094;11.496;2022-10-16T01:40:36;12.90;99.90
11826;DHT22;5970;48.094;11.496;2022-10-16T01:43:11;13.00;99.90
11826;DHT22;5970;48.094;11.496;2022-10-16T01:45:39;12.80;99.90
11826;DHT22;5970;48.094;11.496;2022-10-16T01:48:07;12.80;99.90
11826;DHT22;5970;48.094;11.496;2022-10-16T01:50:37;12.80;99.90
11826;DHT22;5970;48.094;11.496;2022-10-16T01:53:06;12.60;99.90
11826;DHT22;5970;48.094;11.496;2022-10-16T01:55:36;12.90;99.90
11826;DHT22;5970;48.094;11.496;2022-10-16T01:58:04;12.40;99.90
11826;DHT22;5970;48.094;11.496;2022-10-16T02:00:31;13.10;99.90
11826;DHT22;5970;48.094;11.496;2022-10-16T02:02:58;12.60;99.90
11826;DHT22;5970;48.094;11.496;2022-10-16T02:05:32;12.30;99.90
11826;DHT22;5970;48.094;11.496;2022-10-16T02:08:00;12.60;99.90
11826;DHT22;5970;48.094;11.496;2022-10-16T02:10:31;12.60;99.90
11826;DHT22;5970;48.094;11.496;2022-10-16T02:13:00;12.50;99.90
11826;DHT22;5970;48.094;11.496;2022-10-16T02:15:27;12.50;99.90
11826;DHT22;5970;48.094;11.496;2022-10-16T02:17:53;12.50;99.90
11826;DHT22;5970;48.094;11.496;2022-10-16T02:20:21;12.50;99.90
11826;DHT22;5970;48.094;11.496;2022-10-16T02:22:50;12.50;99.90
11826;DHT22;5970;48.094;11.496;2022-10-16T02:25:18;13.00;99.90
11826;DHT22;5970;48.094;11.496;2022-10-16T02:30:25;12.50;99.90
11826;DHT22;5970;48.094;11.496;2022-10-16T02:32:53;12.50;99.90
11826;DHT22;5970;48.094;11.496;2022-10-16T02:35:21;12.90;99.90
11826;DHT22;5970;48.094;11.496;2022-10-16T02:37:49;13.80;99.90
11826;DHT22;5970;48.094;11.496;2022-10-16T02:40:16;12.60;99.90
11826;DHT22;5970;48.094;11.496;2022-10-16T02:42:49;12.50;99.90
11826;DHT22;5970;48.094;11.496;2022-10-16T02:45:16;12.50;99.90
11826;DHT22;5970;48.094;11.496;2022-10-16T02:47:43;13.60;99.90
11826;DHT22;5970;48.094;11.496;2022-10-16T02:50:10;11.90;99.90
11826;DHT22;5970;48.094;11.496;2022-10-16T02:52:37;13.00;99.90
11826;DHT22;5970;48.094;11.496;2022-10-16T02:55:03;12.50;99.90
11826;DHT22;5970;48.094;11.496;2022-10-16T02:57:30;12.50;99.90
11826;DHT22;5970;48.094;11.496;2022-10-16T02:59:58;12.50;99.90
11826;DHT22;5970;48.094;11.496;2022-10-16T03:02:24;12.50;99.90
11826;DHT22;5970;48.094;11.496;2022-10-16T03:04:51;12.50;99.90
11826;DHT22;5970;48.094;11.496;2022-10-16T03:07:17;13.50;99.90
11826;DHT22;5970;48.094;11.496;2022-10-16T03:09:44;12.50;99.90
11826;DHT22;5970;48.094;11.496;2022-10-16T03:12:11;12.50;99.90
11826;DHT22;5970;48.094;11.496;2022-10-16T03:14:38;12.80;99.90
11826;DHT22;5970;48.094;11.496;2022-10-16T03:17:06;12.50;99.90
11826;DHT22;5970;48.094;11.496;2022-10-16T03:19:33;12.20;99.90
11826;DHT22;5970;48.094;11.496;2022-10-16T03:21:59;12.50;99.90
11826;DHT22;5970;48.094;11.496;2022-10-16T03:24:26;12.60;99.90
11826;DHT22;5970;48.094;11.496;2022-10-16T03:26:52;12.30;99.90
11826;DHT22;5970;48.094;11.496;2022-10-16T03:29:19;12.90;99.90
11826;DHT22;5970;48.094;11.496;2022-10-16T03:31:46;13.10;99.90
11826;DHT22;5970;48.094;11.496;2022-10-16T03:34:14;12.50;99.90
11826;DHT22;5970;48.094;11.496;2022-10-16T03:36:41;12.50;99.90
11826;DHT22;5970;48.094;11.496;2022-10-16T03:39:08;14.10;99.90
11826;DHT22;5970;48.094;11.496;2022-10-16T03:41:34;12.80;99.90
11826;DHT22;5970;48.094;11.496;2022-10-16T03:44:01;14.60;99.90
11826;DHT22;5970;48.094;11.496;2022-10-16T03:46:28;12.80;99.90
11826;DHT22;5970;48.094;11.496;2022-10-16T03:48:54;13.00;99.90
11826;DHT22;5970;48.094;11.496;2022-10-16T03:51:21;13.20;99.90
11826;DHT22;5970;48.094;11.496;2022-10-16T03:53:48;13.10;99.90
11826;DHT22;5970;48.094;11.496;2022-10-16T03:56:15;13.20;99.90
11826;DHT22;5970;48.094;11.496;2022-10-16T03:58:41;12.70;99.90
11826;DHT22;5970;48.094;11.496;2022-10-16T04:01:08;13.30;99.90
11826;DHT22;5970;48.094;11.496;2022-10-16T04:03:35;13.30;99.90
11826;DHT22;5970;48.094;11.496;2022-10-16T04:06:01;15.10;99.90
11826;DHT22;5970;48.094;11.496;2022-10-16T04:08:28;13.40;99.90
11826;DHT22;5970;48.094;11.496;2022-10-16T04:10:55;13.30;99.90
11826;DHT22;5970;48.094;11.496;2022-10-16T04:13:21;13.50;99.90
11826;DHT22;5970;48.094;11.496;2022-10-16T04:15:48;12.90;99.90
11826;DHT22;5970;48.094;11.496;2022-10-16T04:18:14;13.50;99.90
11826;DHT22;5970;48.094;11.496;2022-10-16T04:20:41;13.50;99.90
11826;DHT22;5970;48.094;11.496;2022-10-16T04:23:08;13.90;99.90
11826;DHT22;5970;48.094;11.496;2022-10-16T04:25:34;13.80;99.90
11826;DHT22;5970;48.094;11.496;2022-10-16T04:28:01;14.00;99.90
11826;DHT22;5970;48.094;11.496;2022-10-16T04:30:28;14.70;99.90
11826;DHT22;5970;48.094;11.496;2022-10-16T04:32:55;14.10;99.90
11826;DHT22;5970;48.094;11.496;2022-10-16T04:35:21;13.70;99.90
11826;DHT22;5970;48.094;11.496;2022-10-16T04:37:48;13.70;99.90
11826;DHT22;5970;48.094;11.496;2022-10-16T04:40:16;13.40;99.90
11826;DHT22;5970;48.094;11.496;2022-10-16T04:42:43;13.70;99.90
11826;DHT22;5970;48.094;11.496;2022-10-16T04:45:10;13.50;99.90
11826;DHT22;5970;48.094;11.496;2022-10-16T04:47:42;13.70;99.90
11826;DHT22;5970;48.094;11.496;2022-10-16T04:50:09;13.80;99.90
11826;DHT22;5970;48.094;11.496;2022-10-16T04:52:35;13.70;99.90
11826;DHT22;5970;48.094;11.496;2022-10-16T04:55:02;13.20;99.90
11826;DHT22;5970;48.094;11.496;2022-10-16T04:57:29;13.80;99.90
11826;DHT22;5970;48.094;11.496;2022-10-16T04:59:56;13.90;99.90
11826;DHT22;5970;48.094;11.496;2022-10-16T05:02:22;13.70;99.90
11826;DHT22;5970;48.094;11.496;2022-10-16T05:04:49;14.10;99.90
11826;DHT22;5970;48.094;11.496;2022-10-16T05:07:16;13.80;99.90
11826;DHT22;5970;48.094;11.496;2022-10-16T05:09:42;13.90;99.90
11826;DHT22;5970;48.094;11.496;2022-10-16T05:12:09;14.30;99.90
11826;DHT22;5970;48.094;11.496;2022-10-16T05:14:35;13.80;99.90
11826;DHT22;5970;48.094;11.496;2022-10-16T05:17:02;13.90;99.90
11826;DHT22;5970;48.094;11.496;2022-10-16T05:19:29;14.10;99.90
11826;DHT22;5970;48.094;11.496;2022-10-16T05:21:56;14.30;99.90
11826;DHT22;5970;48.094;11.496;2022-10-16T05:24:22;13.90;99.90
11826;DHT22;5970;48.094;11.496;2022-10-16T05:26:49;13.90;99.90
11826;DHT22;5970;48.094;11.496;2022-10-16T05:29:16;14.20;99.90
11826;DHT22;5970;48.094;11.496;2022-10-16T05:31:42;13.90;99.90
11826;DHT22;5970;48.094;11.496;2022-10-16T05:34:09;14.00;99.90
11826;DHT22;5970;48.094;11.496;2022-10-16T05:36:36;14.10;99.90
11826;DHT22;5970;48.094;11.496;2022-10-16T05:39:02;14.50;99.90
11826;DHT22;5970;48.094;11.496;2022-10-16T05:41:29;14.10;99.90
11826;DHT22;5970;48.094;11.496;2022-10-16T05:43:56;14.10;99.90
11826;DHT22;5970;48.094;11.496;2022-10-16T05:46:22;14.10;99.90
11826;DHT22;5970;48.094;11.496;2022-10-16T05:48:51;14.10;99.90
11826;DHT22;5970;48.094;11.496;2022-10-16T05:51:19;14.00;99.90
11826;DHT22;5970;48.094;11.496;2022-10-16T05:53:46;15.10;99.90
11826;DHT22;5970;48.094;11.496;2022-10-16T05:56:12;14.10;99.90
11826;DHT22;5970;48.094;11.496;2022-10-16T05:58:39;14.10;99.90
11826;DHT22;5970;48.094;11.496;2022-10-16T06:01:12;14.10;99.90
11826;DHT22;5970;48.094;11.496;2022-10-16T06:03:38;14.10;99.90
11826;DHT22;5970;48.094;11.496;2022-10-16T06:08:38;14.10;99.90
11826;DHT22;5970;48.094;11.496;2022-10-16T06:11:06;14.30;99.90
11826;DHT22;5970;48.094;11.496;2022-10-16T06:13:32;14.10;99.90
11826;DHT22;5970;48.094;11.496;2022-10-16T06:15:59;14.20;99.90
11826;DHT22;5970;48.094;11.496;2022-10-16T06:18:27;14.20;99.90
11826;DHT22;5970;48.094;11.496;2022-10-16T06:20:54;14.60;99.90
11826;DHT22;5970;48.094;11.496;2022-10-16T06:23:21;14.30;99.90
11826;DHT22;5970;48.094;11.496;2022-10-16T06:25:48;14.30;99.90
11826;DHT22;5970;48.094;11.496;2022-10-16T06:28:15;14.40;99.90
11826;DHT22;5970;48.094;11.496;2022-10-16T06:30:42;14.40;99.90
11826;DHT22;5970;48.094;11.496;2022-10-16T06:33:10;14.50;99.90
11826;DHT22;5970;48.094;11.496;2022-10-16T06:35:37;15.60;99.90
11826;DHT22;5970;48.094;11.496;2022-10-16T06:38:03;14.50;99.90
11826;DHT22;5970;48.094;11.496;2022-10-16T06:40:30;14.90;99.90
11826;DHT22;5970;48.094;11.496;2022-10-16T06:42:57;14.80;99.90
11826;DHT22;5970;48.094;11.496;2022-10-16T06:45:23;14.70;99.90
11826;DHT22;5970;48.094;11.496;2022-10-16T06:47:50;14.80;99.90
11826;DHT22;5970;48.094;11.496;2022-10-16T06:50:17;14.90;99.90
11826;DHT22;5970;48.094;11.496;2022-10-16T06:52:43;14.80;99.90
11826;DHT22;5970;48.094;11.496;2022-10-16T06:55:10;15.00;99.90
11826;DHT22;5970;48.094;11.496;2022-10-16T06:57:36;14.90;99.90
11826;DHT22;5970;48.094;11.496;2022-10-16T07:00:03;16.10;99.90
11826;DHT22;5970;48.094;11.496;2022-10-16T07:02:30;15.10;99.90
11826;DHT22;5970;48.094;11.496;2022-10-16T07:04:57;15.10;99.90
11826;DHT22;5970;48.094;11.496;2022-10-16T07:07:23;15.20;99.90
11826;DHT22;5970;48.094;11.496;2022-10-16T07:09:52;15.20;99.90
11826;DHT22;5970;48.094;11.496;2022-10-16T07:12:19;15.20;99.90
11826;DHT22;5970;48.094;11.496;2022-10-16T07:14:46;15.30;99.90
11826;DHT22;5970;48.094;11.496;2022-10-16T07:17:12;15.30;99.90
11826;DHT22;5970;48.094;11.496;2022-10-16T07:19:39;15.40;99.90
11826;DHT22;5970;48.094;11.496;2022-10-16T07:22:06;15.60;99.90
11826;DHT22;5970;48.094;11.496;2022-10-16T07:24:32;15.70;99.90
11826;DHT22;5970;48.094;11.496;2022-10-16T07:26:59;15.80;99.90
11826;DHT22;5970;48.094;11.496;2022-10-16T07:29:26;15.90;99.90
11826;DHT22;5970;48.094;11.496;2022-10-16T07:31:52;16.10;99.90
11826;DHT22;5970;48.094;11.496;2022-10-16T07:34:19;16.30;99.90
11826;DHT22;5970;48.094;11.496;2022-10-16T07:36:48;16.50;99.90
11826;DHT22;5970;48.094;11.496;2022-10-16T07:39:16;16.40;99.90
11826;DHT22;5970;48.094;11.496;2022-10-16T07:41:43;16.70;99.90
11826;DHT22;5970;48.094;11.496;2022-10-16T07:44:09;16.70;99.90
11826;DHT22;5970;48.094;11.496;2022-10-16T07:46:36;16.90;99.90
11826;DHT22;5970;48.094;11.496;2022-10-16T07:49:03;17.00;99.90
11826;DHT22;5970;48.094;11.496;2022-10-16T07:51:29;17.20;99.90
11826;DHT22;5970;48.094;11.496;2022-10-16T07:53:56;17.40;99.90
11826;DHT22;5970;48.094;11.496;2022-10-16T07:56:23;17.40;99.90
11826;DHT22;5970;48.094;11.496;2022-10-16T07:58:50;17.30;99.90
11826;DHT22;5970;48.094;11.496;2022-10-16T08:01:17;17.50;99.90
11826;DHT22;5970;48.094;11.496;2022-10-16T08:03:45;17.50;99.90
11826;DHT22;5970;48.094;11.496;2022-10-16T08:06:12;17.60;99.90
11826;DHT22;5970;48.094;11.496;2022-10-16T08:08:39;17.70;99.90
11826;DHT22;5970;48.094;11.496;2022-10-16T08:11:05;18.00;99.90
11826;DHT22;5970;48.094;11.496;2022-10-16T08:13:32;17.90;99.90
11826;DHT22;5970;48.094;11.496;2022-10-16T08:15:59;18.10;99.90
11826;DHT22;5970;48.094;11.496;2022-10-16T08:18:26;19.80;99.90
11826;DHT22;5970;48.094;11.496;2022-10-16T08:20:59;18.40;99.90
11826;DHT22;5970;48.094;11.496;2022-10-16T08:23:27;18.40;99.90
11826;DHT22;5970;48.094;11.496;2022-10-16T08:25:54;18.60;99.90
11826;DHT22;5970;48.094;11.496;2022-10-16T08:28:21;18.90;99.90
11826;DHT22;5970;48.094;11.496;2022-10-16T08:30:48;19.20;99.90
11826;DHT22;5970;48.094;11.496;2022-10-16T08:33:15;19.40;99.90
11826;DHT22;5970;48.094;11.496;2022-10-16T08:35:41;19.90;99.10
11826;DHT22;5970;48.094;11.496;2022-10-16T08:38:08;20.50;99.00
11826;DHT22;5970;48.094;11.496;2022-10-16T08:40:35;21.20;97.60
11826;DHT22;5970;48.094;11.496;2022-10-16T08:50:41;26.90;89.20
11826;DHT22;5970;48.094;11.496;2022-10-16T08:53:11;28.30;80.00
11826;DHT22;5970;48.094;11.496;2022-10-16T08:55:48;28.20;80.50
11826;DHT22;5970;48.094;11.496;2022-10-16T08:58:18;28.90;77.20
11826;DHT22;5970;48.094;11.496;2022-10-16T09:01:03;30.30;72.50
11826;DHT22;5970;48.094;11.496;2022-10-16T09:03:41;30.60;70.20
11826;DHT22;5970;48.094;11.496;2022-10-16T09:08:41;31.90;64.70
11826;DHT22;5970;48.094;11.496;2022-10-16T09:11:25;32.10;61.10
11826;DHT22;5970;48.094;11.496;2022-10-16T09:13:58;32.50;59.50
11826;DHT22;5970;48.094;11.496;2022-10-16T09:16:34;32.70;58.20
11826;DHT22;5970;48.094;11.496;2022-10-16T09:21:42;33.10;57.30
11826;DHT22;5970;48.094;11.496;2022-10-16T09:24:11;32.90;56.10
11826;DHT22;5970;48.094;11.496;2022-10-16T09:26:39;33.50;57.90
11826;DHT22;5970;48.094;11.496;2022-10-16T09:29:08;34.50;56.00
11826;DHT22;5970;48.094;11.496;2022-10-16T09:31:35;34.60;53.40
11826;DHT22;5970;48.094;11.496;2022-10-16T09:34:02;33.60;53.00
11826;DHT22;5970;48.094;11.496;2022-10-16T09:36:39;32.00;55.10
11826;DHT22;5970;48.094;11.496;2022-10-16T09:41:35;28.30;59.40
11826;DHT22;5970;48.094;11.496;2022-10-16T09:44:03;27.00;62.30
11826;DHT22;5970;48.094;11.496;2022-10-16T09:46:33;26.40;64.80
11826;DHT22;5970;48.094;11.496;2022-10-16T09:49:03;25.90;67.50
11826;DHT22;5970;48.094;11.496;2022-10-16T09:54:01;24.50;70.60
11826;DHT22;5970;48.094;11.496;2022-10-16T09:56:29;24.10;70.90
11826;DHT22;5970;48.094;11.496;2022-10-16T09:58:57;23.90;72.20
11826;DHT22;5970;48.094;11.496;2022-10-16T10:01:30;23.90;75.00
11826;DHT22;5970;48.094;11.496;2022-10-16T10:03:58;23.80;74.10
11826;DHT22;5970;48.094;11.496;2022-10-16T10:06:33;23.80;73.00
11826;DHT22;5970;48.094;11.496;2022-10-16T10:09:02;23.70;74.30
11826;DHT22;5970;48.094;11.496;2022-10-16T10:11:42;23.90;75.30
11826;DHT22;5970;48.094;11.496;2022-10-16T10:14:20;24.00;74.20
11826;DHT22;5970;48.094;11.496;2022-10-16T10:16:47;24.60;72.80
11826;DHT22;5970;48.094;11.496;2022-10-16T10:19:18;25.50;72.40
11826;DHT22;5970;48.094;11.496;2022-10-16T10:21:45;26.60;69.40
11826;DHT22;5970;48.094;11.496;2022-10-16T10:24:13;27.80;67.80
11826;DHT22;5970;48.094;11.496;2022-10-16T10:26:41;28.70;65.80
11826;DHT22;5970;48.094;11.496;2022-10-16T10:34:32;32.50;56.60
11826;DHT22;5970;48.094;11.496;2022-10-16T10:37:04;33.30;55.20
11826;DHT22;5970;48.094;11.496;2022-10-16T10:39:45;34.20;51.90
11826;DHT22;5970;48.094;11.496;2022-10-16T10:42:30;35.10;50.00
11826;DHT22;5970;48.094;11.496;2022-10-16T10:45:18;35.40;49.90
11826;DHT22;5970;48.094;11.496;2022-10-16T10:58:24;36.50;46.50
11826;DHT22;5970;48.094;11.496;2022-10-16T11:01:01;37.10;44.40
11826;DHT22;5970;48.094;11.496;2022-10-16T11:06:56;36.50;42.60
11826;DHT22;5970;48.094;11.496;2022-10-16T11:14:03;36.90;42.10
11826;DHT22;5970;48.094;11.496;2022-10-16T11:16:39;36.90;41.20
11826;DHT22;5970;48.094;11.496;2022-10-16T11:21:54;37.00;42.20
11826;DHT22;5970;48.094;11.496;2022-10-16T11:24:23;37.50;41.70
11826;DHT22;5970;48.094;11.496;2022-10-16T11:26:53;37.60;40.60
11826;DHT22;5970;48.094;11.496;2022-10-16T11:29:23;37.30;42.70
11826;DHT22;5970;48.094;11.496;2022-10-16T11:31:55;37.70;38.90
11826;DHT22;5970;48.094;11.496;2022-10-16T11:34:41;38.00;39.10
11826;DHT22;5970;48.094;11.496;2022-10-16T11:37:12;38.40;39.20
11826;DHT22;5970;48.094;11.496;2022-10-16T11:39:41;37.80;38.10
11826;DHT22;5970;48.094;11.496;2022-10-16T11:42:10;37.30;42.80
11826;DHT22;5970;48.094;11.496;2022-10-16T11:55:23;36.20;40.30
11826;DHT22;5970;48.094;11.496;2022-10-16T11:57:51;36.10;39.20
11826;DHT22;5970;48.094;11.496;2022-10-16T12:00:21;36.50;39.40
11826;DHT22;5970;48.094;11.496;2022-10-16T12:05:18;37.30;39.90
11826;DHT22;5970;48.094;11.496;2022-10-16T12:10:22;36.20;39.60
11826;DHT22;5970;48.094;11.496;2022-10-16T12:12:53;35.20;38.30
11826;DHT22;5970;48.094;11.496;2022-10-16T12:15:27;34.70;39.50
11826;DHT22;5970;48.094;11.496;2022-10-16T12:18:22;34.90;40.10
11826;DHT22;5970;48.094;11.496;2022-10-16T12:20:58;35.80;40.70
11826;DHT22;5970;48.094;11.496;2022-10-16T12:23:26;35.90;39.60
11826;DHT22;5970;48.094;11.496;2022-10-16T12:25:53;36.40;39.70
11826;DHT22;5970;48.094;11.496;2022-10-16T12:28:22;36.50;37.80
11826;DHT22;5970;48.094;11.496;2022-10-16T12:30:55;35.60;38.90
11826;DHT22;5970;48.094;11.496;2022-10-16T12:33:26;35.70;38.80
11826;DHT22;5970;48.094;11.496;2022-10-16T12:35:53;35.70;40.50
11826;DHT22;5970;48.094;11.496;2022-10-16T12:38:21;35.10;41.50
11826;DHT22;5970;48.094;11.496;2022-10-16T12:40:55;34.60;41.80
11826;DHT22;5970;48.094;11.496;2022-10-16T12:46:02;35.30;42.30
11826;DHT22;5970;48.094;11.496;2022-10-16T12:48:29;34.30;41.40
11826;DHT22;5970;48.094;11.496;2022-10-16T12:56:19;30.30;47.20
11826;DHT22;5970;48.094;11.496;2022-10-16T12:58:55;30.10;49.10
11826;DHT22;5970;48.094;11.496;2022-10-16T13:04:13;29.10;50.20
11826;DHT22;5970;48.094;11.496;2022-10-16T13:12:21;28.30;55.90
11826;DHT22;5970;48.094;11.496;2022-10-16T13:15:04;28.00;51.30
11826;DHT22;5970;48.094;11.496;2022-10-16T13:17:44;28.00;52.70
11826;DHT22;5970;48.094;11.496;2022-10-16T13:28:09;27.60;51.30
11826;DHT22;5970;48.094;11.496;2022-10-16T13:30:38;27.30;53.70
11826;DHT22;5970;48.094;11.496;2022-10-16T13:35:51;27.50;50.70
11826;DHT22;5970;48.094;11.496;2022-10-16T13:38:19;27.70;50.30
11826;DHT22;5970;48.094;11.496;2022-10-16T13:41:32;28.20;51.00
11826;DHT22;5970;48.094;11.496;2022-10-16T13:43:37;28.70;52.10
11826;DHT22;5970;48.094;11.496;2022-10-16T13:46:11;29.00;53.40
11826;DHT22;5970;48.094;11.496;2022-10-16T13:48:38;28.90;50.20
11826;DHT22;5970;48.094;11.496;2022-10-16T13:51:15;28.50;51.70
11826;DHT22;5970;48.094;11.496;2022-10-16T13:53:43;28.40;52.60
11826;DHT22;5970;48.094;11.496;2022-10-16T13:56:14;28.10;52.80
11826;DHT22;5970;48.094;11.496;2022-10-16T13:58:41;27.80;51.50
11826;DHT22;5970;48.094;11.496;2022-10-16T14:01:22;27.40;51.90
11826;DHT22;5970;48.094;11.496;2022-10-16T14:04:04;27.00;52.50
11826;DHT22;5970;48.094;11.496;2022-10-16T14:06:32;26.90;53.70
11826;DHT22;5970;48.094;11.496;2022-10-16T14:09:00;26.60;52.50
11826;DHT22;5970;48.094;11.496;2022-10-16T14:11:28;26.60;54.10
11826;DHT22;5970;48.094;11.496;2022-10-16T14:13:55;26.60;55.50
11826;DHT22;5970;48.094;11.496;2022-10-16T14:16:22;26.40;58.00
11826;DHT22;5970;48.094;11.496;2022-10-16T14:19:35;26.30;54.20
11826;DHT22;5970;48.094;11.496;2022-10-16T14:21:37;26.20;56.80
11826;DHT22;5970;48.094;11.496;2022-10-16T14:24:10;26.10;60.10
11826;DHT22;5970;48.094;11.496;2022-10-16T14:26:41;26.10;58.20
11826;DHT22;5970;48.094;11.496;2022-10-16T14:29:17;26.10;60.50
11826;DHT22;5970;48.094;11.496;2022-10-16T14:32:01;26.10;58.30
11826;DHT22;5970;48.094;11.496;2022-10-16T14:34:29;26.20;63.90
11826;DHT22;5970;48.094;11.496;2022-10-16T14:36:58;26.30;62.40
11826;DHT22;5970;48.094;11.496;2022-10-16T14:39:25;26.50;55.00
11826;DHT22;5970;48.094;11.496;2022-10-16T14:41:54;26.50;57.70
11826;DHT22;5970;48.094;11.496;2022-10-16T14:44:22;26.50;60.00
11826;DHT22;5970;48.094;11.496;2022-10-16T14:46:49;26.40;54.50
11826;DHT22;5970;48.094;11.496;2022-10-16T14:49:19;26.30;56.30
11826;DHT22;5970;48.094;11.496;2022-10-16T14:51:49;25.80;56.40
11826;DHT22;5970;48.094;11.496;2022-10-16T14:54:16;25.50;57.20
11826;DHT22;5970;48.094;11.496;2022-10-16T14:56:56;25.40;58.40
11826;DHT22;5970;48.094;11.496;2022-10-16T15:01:53;25.10;63.00
11826;DHT22;5970;48.094;11.496;2022-10-16T15:04:19;24.80;63.60
11826;DHT22;5970;48.094;11.496;2022-10-16T15:06:46;24.60;64.40
11826;DHT22;5970;48.094;11.496;2022-10-16T15:09:13;24.40;65.30
11826;DHT22;5970;48.094;11.496;2022-10-16T15:11:39;24.20;68.40
11826;DHT22;5970;48.094;11.496;2022-10-16T15:14:08;23.90;69.50
11826;DHT22;5970;48.094;11.496;2022-10-16T15:16:34;23.70;69.70
11826;DHT22;5970;48.094;11.496;2022-10-16T15:19:01;23.50;70.70
11826;DHT22;5970;48.094;11.496;2022-10-16T15:21:29;23.30;70.30
11826;DHT22;5970;48.094;11.496;2022-10-16T15:23:56;23.10;72.80
11826;DHT22;5970;48.094;11.496;2022-10-16T15:26:23;22.90;74.20
11826;DHT22;5970;48.094;11.496;2022-10-16T15:28:50;22.80;76.60
11826;DHT22;5970;48.094;11.496;2022-10-16T15:31:17;22.60;78.00
11826;DHT22;5970;48.094;11.496;2022-10-16T15:33:44;22.40;78.20
11826;DHT22;5970;48.094;11.496;2022-10-16T15:36:14;22.30;78.90
11826;DHT22;5970;48.094;11.496;2022-10-16T15:38:40;22.20;80.80
11826;DHT22;5970;48.094;11.496;2022-10-16T15:41:07;22.10;81.60
11826;DHT22;5970;48.094;11.496;2022-10-16T15:43:34;21.90;82.30
11826;DHT22;5970;48.094;11.496;2022-10-16T15:46:04;21.90;83.20
11826;DHT22;5970;48.094;11.496;2022-10-16T15:48:32;21.80;83.70
11826;DHT22;5970;48.094;11.496;2022-10-16T15:50:59;21.60;84.00
11826;DHT22;5970;48.094;11.496;2022-10-16T15:53:26;21.50;85.60
11826;DHT22;5970;48.094;11.496;2022-10-16T15:55:53;21.30;87.20
11826;DHT22;5970;48.094;11.496;2022-10-16T15:58:19;21.20;87.70
11826;DHT22;5970;48.094;11.496;2022-10-16T16:00:53;21.10;89.10
11826;DHT22;5970;48.094;11.496;2022-10-16T16:03:20;20.90;89.90
11826;DHT22;5970;48.094;11.496;2022-10-16T16:05:46;20.80;90.60
11826;DHT22;5970;48.094;11.496;2022-10-16T16:08:13;20.70;90.30
11826;DHT22;5970;48.094;11.496;2022-10-16T16:10:40;20.60;90.80
11826;DHT22;5970;48.094;11.496;2022-10-16T16:13:07;20.30;91.20
11826;DHT22;5970;48.094;11.496;2022-10-16T16:15:33;20.30;91.40
11826;DHT22;5970;48.094;11.496;2022-10-16T16:18:00;20.20;91.60
11826;DHT22;5970;48.094;11.496;2022-10-16T16:20:28;20.10;92.20
11826;DHT22;5970;48.094;11.496;2022-10-16T16:22:55;19.90;92.40
11826;DHT22;5970;48.094;11.496;2022-10-16T16:25:22;19.80;92.60
11826;DHT22;5970;48.094;11.496;2022-10-16T16:27:48;19.70;93.20
11826;DHT22;5970;48.094;11.496;2022-10-16T16:30:15;19.60;93.40
11826;DHT22;5970;48.094;11.496;2022-10-16T16:32:47;19.50;93.60
11826;DHT22;5970;48.094;11.496;2022-10-16T16:35:13;19.40;94.00
11826;DHT22;5970;48.094;11.496;2022-10-16T16:37:40;19.20;94.30
11826;DHT22;5970;48.094;11.496;2022-10-16T16:40:07;19.10;94.60
11826;DHT22;5970;48.094;11.496;2022-10-16T16:42:33;19.00;95.20
11826;DHT22;5970;48.094;11.496;2022-10-16T16:45:00;18.90;95.50
11826;DHT22;5970;48.094;11.496;2022-10-16T16:47:26;18.80;95.90
11826;DHT22;5970;48.094;11.496;2022-10-16T16:49:53;18.60;96.20
11826;DHT22;5970;48.094;11.496;2022-10-16T16:52:20;18.60;96.30
11826;DHT22;5970;48.094;11.496;2022-10-16T16:54:47;18.50;96.80
11826;DHT22;5970;48.094;11.496;2022-10-16T16:57:18;18.40;97.00
11826;DHT22;5970;48.094;11.496;2022-10-16T16:59:45;18.30;97.30
11826;DHT22;5970;48.094;11.496;2022-10-16T17:02:12;18.30;97.70
11826;DHT22;5970;48.094;11.496;2022-10-16T17:04:38;18.20;98.10
11826;DHT22;5970;48.094;11.496;2022-10-16T17:07:05;18.10;98.30
11826;DHT22;5970;48.094;11.496;2022-10-16T17:09:32;18.00;98.80
11826;DHT22;5970;48.094;11.496;2022-10-16T17:11:59;18.00;99.10
11826;DHT22;5970;48.094;11.496;2022-10-16T17:14:25;17.90;99.30
11826;DHT22;5970;48.094;11.496;2022-10-16T17:16:52;18.00;99.60
11826;DHT22;5970;48.094;11.496;2022-10-16T17:19:19;17.80;99.80
11826;DHT22;5970;48.094;11.496;2022-10-16T17:21:49;17.70;99.90
11826;DHT22;5970;48.094;11.496;2022-10-16T17:24:16;17.60;99.90